createdAt,value
2018-08-25T00:01:58.941Z,60.87
2018-08-25T00:05:23.582Z,60.57
2018-08-25T00:08:48.240Z,59.00
2018-08-25T00:12:12.900Z,57.08
2018-08-25T00:15:37.518Z,60.24
2018-08-25T00:19:03.215Z,59.62
2018-08-25T00:22:27.816Z,60.90
2018-08-25T00:25:52.446Z,59.26
2018-08-25T00:29:17.103Z,59.56
2018-08-25T00:32:41.766Z,58.56
2018-08-25T00:36:06.427Z,58.52
2018-08-25T00:39:31.077Z,59.55
2018-08-25T00:42:55.742Z,60.43
2018-08-25T00:46:20.416Z,60.63
2018-08-25T00:49:45.050Z,61.94
2018-08-25T00:53:09.661Z,62.70
2018-08-25T00:56:34.314Z,61.97
2018-08-25T00:59:58.919Z,62.47
2018-08-25T01:03:23.620Z,61.27
2018-08-25T01:06:48.482Z,61.37
2018-08-25T01:10:13.186Z,62.39
2018-08-25T01:13:37.828Z,62.99
2018-08-25T01:17:02.689Z,63.46
2018-08-25T01:20:27.392Z,62.64
2018-08-25T01:23:52.090Z,62.05
2018-08-25T01:27:16.729Z,60.14
2018-08-25T01:30:41.400Z,61.25
2018-08-25T01:34:06.127Z,61.19
2018-08-25T01:37:30.774Z,59.14
2018-08-25T01:40:55.415Z,59.02
2018-08-25T01:44:20.078Z,59.39
2018-08-25T01:47:44.653Z,58.49
2018-08-25T01:51:09.297Z,59.62
2018-08-25T01:54:33.934Z,59.76
2018-08-25T01:57:58.597Z,61.39
2018-08-25T02:01:23.180Z,61.34
2018-08-25T02:04:47.837Z,61.84
2018-08-25T02:08:12.476Z,61.65
2018-08-25T02:11:37.090Z,60.23
2018-08-25T02:15:01.730Z,60.69
2018-08-25T02:18:26.374Z,59.40
2018-08-25T02:21:51.000Z,61.75
2018-08-25T02:25:15.650Z,60.20
2018-08-25T02:28:40.324Z,60.91
2018-08-25T02:32:05.006Z,60.47
2018-08-25T02:35:29.650Z,60.14
2018-08-25T02:38:54.256Z,60.30
2018-08-25T02:42:18.847Z,58.86
2018-08-25T02:45:43.460Z,60.11
2018-08-25T02:49:08.247Z,59.03
2018-08-25T02:52:33.136Z,59.98
2018-08-25T02:55:57.789Z,59.06
2018-08-25T02:59:22.442Z,60.05
2018-08-25T03:02:47.076Z,61.53
2018-08-25T03:06:11.915Z,58.75
2018-08-25T03:09:36.539Z,61.21
2018-08-25T03:13:01.198Z,61.78
2018-08-25T03:16:25.821Z,60.39
2018-08-25T03:19:50.444Z,60.30
2018-08-25T03:23:15.174Z,61.67
2018-08-25T03:26:39.882Z,63.95
2018-08-25T03:30:04.571Z,64.18
2018-08-25T03:33:29.356Z,64.03
2018-08-25T03:36:53.958Z,59.23
2018-08-25T03:40:18.563Z,60.67
2018-08-25T03:43:43.200Z,58.93
2018-08-25T03:47:07.898Z,62.66
2018-08-25T03:50:32.622Z,63.14
2018-08-25T03:53:57.321Z,62.46
2018-08-25T03:57:21.979Z,63.37
2018-08-25T04:00:46.704Z,62.76
2018-08-25T04:04:11.360Z,62.88
2018-08-25T04:07:35.957Z,64.66
2018-08-25T04:11:00.581Z,64.17
2018-08-25T04:14:25.204Z,65.12
2018-08-25T04:17:49.948Z,61.76
2018-08-25T04:21:14.679Z,63.63
2018-08-25T04:24:39.244Z,64.51
2018-08-25T04:28:03.920Z,66.40
2018-08-25T04:31:28.574Z,66.03
2018-08-25T04:34:53.256Z,63.94
2018-08-25T04:38:17.929Z,64.41
2018-08-25T04:41:42.597Z,64.35
2018-08-25T04:45:07.370Z,63.81
2018-08-25T04:48:32.040Z,64.39
2018-08-25T04:51:56.702Z,65.42
2018-08-25T04:55:21.381Z,65.51
2018-08-25T04:58:46.017Z,65.18
2018-08-25T05:02:10.688Z,65.02
2018-08-25T05:07:04.386Z,63.19
2018-08-25T05:10:28.984Z,62.87
2018-08-25T05:13:53.606Z,58.82
2018-08-25T05:17:18.246Z,61.48
2018-08-25T05:20:42.920Z,62.27
2018-08-25T05:24:07.569Z,63.44
2018-08-25T05:27:32.190Z,63.97
2018-08-25T05:30:57.148Z,65.02
2018-08-25T05:34:21.794Z,64.41
2018-08-25T05:37:46.442Z,62.13
2018-08-25T05:41:11.104Z,61.15
2018-08-25T05:44:35.725Z,62.66
2018-08-25T05:48:00.341Z,61.88
2018-08-25T05:51:24.975Z,62.59
2018-08-25T05:54:49.615Z,63.35
2018-08-25T05:58:14.248Z,63.98
2018-08-25T06:01:38.901Z,63.52
2018-08-25T06:05:03.618Z,64.42
2018-08-25T06:08:28.299Z,64.63
2018-08-25T06:11:53.087Z,64.53
2018-08-25T06:15:17.802Z,63.31
2018-08-25T06:18:42.487Z,62.55
2018-08-25T06:22:07.170Z,66.80
2018-08-25T06:25:31.813Z,66.96
2018-08-25T06:28:56.493Z,66.46
2018-08-25T06:32:21.175Z,65.44
2018-08-25T06:35:45.823Z,63.76
2018-08-25T06:39:11.062Z,65.99
2018-08-25T06:42:35.806Z,66.26
2018-08-25T06:46:05.691Z,67.61
2018-08-25T06:49:30.349Z,68.61
2018-08-25T06:52:55.008Z,63.63
2018-08-25T06:56:19.676Z,65.65
2018-08-25T06:59:44.371Z,65.04
2018-08-25T07:03:09.011Z,61.09
2018-08-25T07:06:33.797Z,58.84
2018-08-25T07:09:58.541Z,59.50
2018-08-25T07:13:23.297Z,59.33
2018-08-25T07:16:48.051Z,60.90
2018-08-25T07:20:12.850Z,56.77
2018-08-25T07:23:37.617Z,59.23
2018-08-25T07:27:02.546Z,60.99
2018-08-25T07:30:27.385Z,62.41
2018-08-25T07:33:52.132Z,64.48
2018-08-25T07:37:17.027Z,64.97
2018-08-25T07:40:41.974Z,64.56
2018-08-25T07:44:07.029Z,67.70
2018-08-25T07:47:32.547Z,65.76
2018-08-25T07:50:57.589Z,65.93
2018-08-25T07:54:22.364Z,63.43
2018-08-25T07:57:47.231Z,68.01
2018-08-25T08:01:11.999Z,67.88
2018-08-25T08:04:36.779Z,62.75
2018-08-25T08:08:02.448Z,68.10
2018-08-25T08:11:27.326Z,66.94
2018-08-25T08:14:52.154Z,65.56
2018-08-25T08:18:17.266Z,64.37
2018-08-25T08:21:41.943Z,65.18
2018-08-25T08:25:06.723Z,64.17
2018-08-25T08:28:31.507Z,62.82
2018-08-25T08:31:56.237Z,62.16
2018-08-25T08:35:21.197Z,61.55
2018-08-25T08:38:45.968Z,59.39
2018-08-25T08:42:10.768Z,60.53
2018-08-25T08:45:35.751Z,58.90
2018-08-25T08:49:00.449Z,58.93
2018-08-25T08:52:25.782Z,57.31
2018-08-25T08:55:50.429Z,57.76
2018-08-25T08:59:16.266Z,57.78
2018-08-25T09:02:41.341Z,58.07
2018-08-25T09:06:06.924Z,57.39
2018-08-25T09:09:32.069Z,56.49
2018-08-25T09:12:57.793Z,56.75
2018-08-25T09:16:23.609Z,55.59
2018-08-25T09:19:50.157Z,55.67
2018-08-25T09:23:16.527Z,54.71
2018-08-25T09:26:41.918Z,54.70
2018-08-25T09:30:08.085Z,55.81
2018-08-25T09:33:33.617Z,58.63
2018-08-25T09:36:59.052Z,55.87
2018-08-25T09:40:24.600Z,56.81
2018-08-25T12:21:47.902Z,76.93
2018-08-25T12:25:12.502Z,75.24
2018-08-25T12:28:37.223Z,77.58
2018-08-25T12:32:01.919Z,74.44
2018-08-25T12:35:26.615Z,76.65
2018-08-25T12:38:51.257Z,76.17
2018-08-25T12:42:15.903Z,66.03
2018-08-25T12:45:40.619Z,74.46
2018-08-25T12:49:05.468Z,73.80
2018-08-25T12:52:30.609Z,76.87
2018-08-25T12:55:55.255Z,73.98
2018-08-25T12:59:22.714Z,75.91
2018-08-25T13:02:48.004Z,74.13
2018-08-25T13:06:12.848Z,74.52
2018-08-25T13:09:38.109Z,75.04
2018-08-25T13:13:02.815Z,72.40
2018-08-25T13:16:27.472Z,73.08
2018-08-25T13:19:52.349Z,68.56
2018-08-25T13:23:17.067Z,73.80
2018-08-25T13:26:41.803Z,73.87
2018-08-25T13:30:06.743Z,71.17
2018-08-25T13:33:31.404Z,74.57
2018-08-25T13:36:56.126Z,74.59
2018-08-25T13:40:20.841Z,78.84
2018-08-25T13:43:45.647Z,76.84
2018-08-25T13:47:10.270Z,75.96
2018-08-25T13:50:35.003Z,75.58
2018-08-25T13:53:59.714Z,75.40
2018-08-25T13:57:24.410Z,76.60
2018-08-25T14:00:49.123Z,75.81
2018-08-25T14:04:13.782Z,75.92
2018-08-25T14:07:38.488Z,76.58
2018-08-25T14:11:03.136Z,76.17
2018-08-25T14:14:27.795Z,70.87
2018-08-25T14:17:52.425Z,72.91
2018-08-25T14:21:17.126Z,72.11
2018-08-25T14:24:41.822Z,69.37
2018-08-25T14:28:06.509Z,74.45
2018-08-25T14:31:31.182Z,73.78
2018-08-25T14:34:55.862Z,71.88
2018-08-25T14:38:20.540Z,68.56
2018-08-25T14:41:45.279Z,64.85
2018-08-25T14:45:10.070Z,66.04
2018-08-25T14:48:34.758Z,69.34
2018-08-25T14:51:59.438Z,69.24
2018-08-25T14:55:24.070Z,69.60
2018-08-25T14:58:48.791Z,71.45
2018-08-25T15:02:14.541Z,70.16
2018-08-25T15:05:39.330Z,68.61
2018-08-25T15:09:05.993Z,63.45
2018-08-25T15:12:30.730Z,69.71
2018-08-25T15:15:56.672Z,64.78
2018-08-25T15:19:21.914Z,62.74
2018-08-25T15:36:31.730Z,64.36
2018-08-25T15:39:56.548Z,64.40
2018-08-25T15:46:56.704Z,63.26
2018-08-25T15:50:21.421Z,62.52
2018-08-25T15:53:46.080Z,64.09
2018-08-25T15:57:10.912Z,64.62
2018-08-25T16:00:35.664Z,64.26
2018-08-25T16:04:00.536Z,63.06
2018-08-25T16:07:25.406Z,65.19
2018-08-25T16:10:50.232Z,62.65
2018-08-25T16:14:14.943Z,63.04
2018-08-25T16:17:39.683Z,66.74
2018-08-25T16:21:04.693Z,73.05
2018-08-25T16:24:29.497Z,70.81
2018-08-25T16:27:54.285Z,78.40
2018-08-25T16:31:19.144Z,77.96
2018-08-25T16:34:44.090Z,76.38
2018-08-25T16:38:08.953Z,77.44
2018-08-25T16:41:33.729Z,76.79
2018-08-25T16:44:58.531Z,76.79
2018-08-25T16:48:24.242Z,79.12
2018-08-25T16:51:49.081Z,81.39
2018-08-25T16:55:13.864Z,75.77
2018-08-25T17:00:07.591Z,79.02
2018-08-25T17:03:32.378Z,72.75
2018-08-25T17:06:57.121Z,75.18
2018-08-25T17:10:21.961Z,74.41
2018-08-25T17:13:55.787Z,75.00
2018-08-25T17:20:53.751Z,75.49
2018-08-25T17:24:18.580Z,76.96
2018-08-25T17:27:43.439Z,73.28
2018-08-25T17:31:08.329Z,67.92
2018-08-25T17:38:07.866Z,65.74
2018-08-25T17:41:32.662Z,68.10
2018-08-25T17:44:57.886Z,66.65
2018-08-25T17:48:22.701Z,66.81
2018-08-25T17:51:47.440Z,64.73
2018-08-25T17:55:12.993Z,62.57
2018-08-25T17:58:37.815Z,64.73
2018-08-25T18:02:02.807Z,65.97
2018-08-25T18:05:27.590Z,68.55
2018-08-25T18:08:52.423Z,69.33
2018-08-25T18:12:17.215Z,71.66
2018-08-25T18:15:41.987Z,68.38
2018-08-25T18:19:07.403Z,67.30
2018-08-25T18:22:32.550Z,68.80
2018-08-25T18:25:57.799Z,71.09
2018-08-25T18:30:46.977Z,64.89
2018-08-25T18:34:11.732Z,65.31
2018-08-25T18:37:36.549Z,70.14
2018-08-25T18:41:01.624Z,68.55
2018-08-25T18:44:26.401Z,72.74
2018-08-25T18:47:51.455Z,74.73
2018-08-25T18:51:17.508Z,73.07
2018-08-25T18:54:42.988Z,74.68
2018-08-25T18:58:08.644Z,75.42
2018-08-25T19:01:33.603Z,76.56
2018-08-25T19:05:00.502Z,76.13
2018-08-25T19:08:27.240Z,72.62
2018-08-25T19:11:52.455Z,74.06
2018-08-25T19:15:17.249Z,74.55
2018-08-25T19:18:42.062Z,75.62
2018-08-25T19:22:07.080Z,75.10
2018-08-25T19:25:32.056Z,74.41
2018-08-25T19:28:57.215Z,75.29
2018-08-25T19:32:22.367Z,76.04
2018-08-25T19:35:47.412Z,76.93
2018-08-25T19:39:12.521Z,76.58
2018-08-25T19:42:37.664Z,74.27
2018-08-25T19:46:02.856Z,76.08
2018-08-25T19:49:28.106Z,73.74
2018-08-25T19:52:53.240Z,73.27
2018-08-25T19:56:18.226Z,74.32
2018-08-25T19:59:43.349Z,74.02
2018-08-25T20:03:08.378Z,73.26
2018-08-25T20:06:33.217Z,72.29
2018-08-25T20:09:58.389Z,73.65
2018-08-25T20:13:23.308Z,74.49
2018-08-25T20:16:48.251Z,73.38
2018-08-25T20:20:13.301Z,72.02
2018-08-25T20:23:38.316Z,72.91
2018-08-25T20:27:03.202Z,74.01
2018-08-25T20:30:28.054Z,72.13
2018-08-25T20:33:52.854Z,73.43
2018-08-25T20:37:17.958Z,71.13
2018-08-25T20:40:43.182Z,71.76
2018-08-25T20:44:08.603Z,70.38
2018-08-25T20:47:33.421Z,68.85
2018-08-25T20:50:58.318Z,70.67
2018-08-25T20:54:23.168Z,72.42
2018-08-25T20:57:47.906Z,74.31
2018-08-25T21:01:12.766Z,75.29
2018-08-25T21:04:37.630Z,72.30
2018-08-25T21:08:02.445Z,73.74
2018-08-25T21:11:27.293Z,75.79
2018-08-25T21:14:52.157Z,76.21
2018-08-25T21:18:17.228Z,77.91
2018-08-25T21:21:42.105Z,77.41
2018-08-25T21:25:07.239Z,77.24
2018-08-25T21:28:32.110Z,79.22
2018-08-25T21:31:56.950Z,78.56
2018-08-25T21:35:21.730Z,74.66
2018-08-25T21:38:46.471Z,71.18
2018-08-25T21:42:11.382Z,72.59
2018-08-25T21:45:36.326Z,74.45
2018-08-25T21:49:01.055Z,75.00
2018-08-25T21:52:26.553Z,73.35
2018-08-25T21:55:51.251Z,73.88
2018-08-25T21:59:16.027Z,75.35
2018-08-25T22:02:40.793Z,73.47
2018-08-25T22:06:05.786Z,75.21
2018-08-25T22:09:30.496Z,75.02
2018-08-25T22:12:55.213Z,72.92
2018-08-25T22:16:20.250Z,75.73
2018-08-25T22:19:45.181Z,74.54
2018-08-25T22:23:09.876Z,74.47
2018-08-25T22:26:35.401Z,72.78
2018-08-25T22:30:00.268Z,70.69
2018-08-25T22:33:25.043Z,72.39
2018-08-25T22:36:51.401Z,75.22
2018-08-25T22:40:16.228Z,74.42
2018-08-25T22:43:40.986Z,74.40
2018-08-25T22:47:05.964Z,75.46
2018-08-25T22:50:30.867Z,77.28
2018-08-25T22:53:55.605Z,74.86
2018-08-25T22:57:20.263Z,75.82
2018-08-25T23:00:45.113Z,73.77
2018-08-25T23:04:10.838Z,74.98
2018-08-25T23:07:35.704Z,76.89
2018-08-25T23:11:00.451Z,78.69
2018-08-25T23:14:25.129Z,78.67
2018-08-25T23:17:49.782Z,77.73
2018-08-25T23:21:14.493Z,78.28
2018-08-25T23:24:39.203Z,79.15
2018-08-25T23:28:03.951Z,78.67
2018-08-25T23:31:28.706Z,77.35
2018-08-25T23:34:53.415Z,78.07
2018-08-25T23:38:18.186Z,77.01
2018-08-25T23:41:42.980Z,78.44
2018-08-25T23:45:07.708Z,78.89
2018-08-25T23:48:32.409Z,79.84
2018-08-25T23:51:57.071Z,79.87
2018-08-25T23:55:21.862Z,81.30
2018-08-25T23:58:46.620Z,79.42
